sensor_id;sensor_type;location;lat;lon;timestamp;temperature;humidity
76789;DHT22;65740;52.464;13.446;2023-12-07T00:00:18;18.80;36.50
76789;DHT22;65740;52.464;13.446;2023-12-07T00:02:44;18.80;36.50
76789;DHT22;65740;52.464;13.446;2023-12-07T00:05:09;18.90;36.60
76789;DHT22;65740;52.464;13.446;2023-12-07T00:07:35;18.90;36.60
76789;DHT22;65740;52.464;13.446;2023-12-07T00:10:00;18.90;36.70
76789;DHT22;65740;52.464;13.446;2023-12-07T00:12:26;18.90;36.60
76789;DHT22;65740;52.464;13.446;2023-12-07T00:14:51;19.00;36.70
76789;DHT22;65740;52.464;13.446;2023-12-07T00:17:17;18.90;36.60
76789;DHT22;65740;52.464;13.446;2023-12-07T00:19:42;19.00;36.70
76789;DHT22;65740;52.464;13.446;2023-12-07T00:22:08;19.00;36.70
76789;DHT22;65740;52.464;13.446;2023-12-07T00:24:34;19.00;36.70
76789;DHT22;65740;52.464;13.446;2023-12-07T00:26:59;19.00;36.70
76789;DHT22;65740;52.464;13.446;2023-12-07T00:29:25;19.00;36.70
76789;DHT22;65740;52.464;13.446;2023-12-07T00:31:50;19.00;36.70
76789;DHT22;65740;52.464;13.446;2023-12-07T00:34:17;19.00;36.70
76789;DHT22;65740;52.464;13.446;2023-12-07T00:36:43;19.00;36.70
76789;DHT22;65740;52.464;13.446;2023-12-07T00:39:08;19.00;36.70
76789;DHT22;65740;52.464;13.446;2023-12-07T00:41:34;19.00;36.70
76789;DHT22;65740;52.464;13.446;2023-12-07T00:44:00;19.00;36.70
76789;DHT22;65740;52.464;13.446;2023-12-07T00:46:25;19.00;36.70
76789;DHT22;65740;52.464;13.446;2023-12-07T00:48:51;18.90;37.30
76789;DHT22;65740;52.464;13.446;2023-12-07T00:51:16;18.90;36.70
76789;DHT22;65740;52.464;13.446;2023-12-07T00:53:42;18.90;36.60
76789;DHT22;65740;52.464;13.446;2023-12-07T00:56:08;18.80;36.50
76789;DHT22;65740;52.464;13.446;2023-12-07T00:58:33;18.80;36.50
76789;DHT22;65740;52.464;13.446;2023-12-07T01:01:00;18.70;36.50
76789;DHT22;65740;52.464;13.446;2023-12-07T01:03:25;18.70;36.60
76789;DHT22;65740;52.464;13.446;2023-12-07T01:05:51;18.60;36.40
76789;DHT22;65740;52.464;13.446;2023-12-07T01:08:17;18.60;36.40
76789;DHT22;65740;52.464;13.446;2023-12-07T01:10:42;18.50;36.30
76789;DHT22;65740;52.464;13.446;2023-12-07T01:13:08;18.50;36.30
76789;DHT22;65740;52.464;13.446;2023-12-07T01:15:33;18.50;36.30
76789;DHT22;65740;52.464;13.446;2023-12-07T01:17:59;18.50;36.50
76789;DHT22;65740;52.464;13.446;2023-12-07T01:20:24;18.50;36.70
76789;DHT22;65740;52.464;13.446;2023-12-07T01:22:50;18.40;36.60
76789;DHT22;65740;52.464;13.446;2023-12-07T01:25:15;18.40;36.60
76789;DHT22;65740;52.464;13.446;2023-12-07T01:27:47;18.40;36.70
76789;DHT22;65740;52.464;13.446;2023-12-07T01:30:12;18.30;36.70
76789;DHT22;65740;52.464;13.446;2023-12-07T01:32:38;18.40;36.80
76789;DHT22;65740;52.464;13.446;2023-12-07T01:35:04;18.40;36.80
76789;DHT22;65740;52.464;13.446;2023-12-07T01:37:30;18.30;37.40
76789;DHT22;65740;52.464;13.446;2023-12-07T01:39:56;18.30;36.70
76789;DHT22;65740;52.464;13.446;2023-12-07T01:42:21;18.30;36.80
76789;DHT22;65740;52.464;13.446;2023-12-07T01:44:47;18.30;36.80
76789;DHT22;65740;52.464;13.446;2023-12-07T01:47:13;18.30;36.60
76789;DHT22;65740;52.464;13.446;2023-12-07T01:49:39;18.40;36.60
76789;DHT22;65740;52.464;13.446;2023-12-07T01:52:05;18.40;36.20
76789;DHT22;65740;52.464;13.446;2023-12-07T01:54:32;18.50;36.30
76789;DHT22;65740;52.464;13.446;2023-12-07T01:56:58;18.60;36.40
76789;DHT22;65740;52.464;13.446;2023-12-07T01:59:24;18.70;36.50
76789;DHT22;65740;52.464;13.446;2023-12-07T02:01:50;18.70;36.50
76789;DHT22;65740;52.464;13.446;2023-12-07T02:04:16;18.70;37.20
76789;DHT22;65740;52.464;13.446;2023-12-07T02:06:42;18.90;36.60
76789;DHT22;65740;52.464;13.446;2023-12-07T02:09:08;18.80;36.50
76789;DHT22;65740;52.464;13.446;2023-12-07T02:11:34;18.80;36.50
76789;DHT22;65740;52.464;13.446;2023-12-07T02:14:00;18.80;36.50
76789;DHT22;65740;52.464;13.446;2023-12-07T02:16:46;18.80;36.50
76789;DHT22;65740;52.464;13.446;2023-12-07T02:22:10;18.80;36.50
76789;DHT22;65740;52.464;13.446;2023-12-07T02:24:38;18.90;36.60
76789;DHT22;65740;52.464;13.446;2023-12-07T02:27:08;18.90;36.60
76789;DHT22;65740;52.464;13.446;2023-12-07T02:29:33;18.90;36.60
76789;DHT22;65740;52.464;13.446;2023-12-07T02:31:59;18.90;36.60
76789;DHT22;65740;52.464;13.446;2023-12-07T02:34:24;18.90;36.60
76789;DHT22;65740;52.464;13.446;2023-12-07T02:36:52;18.90;36.60
76789;DHT22;65740;52.464;13.446;2023-12-07T02:39:19;18.90;36.60
76789;DHT22;65740;52.464;13.446;2023-12-07T02:41:46;18.90;36.60
76789;DHT22;65740;52.464;13.446;2023-12-07T02:44:13;18.90;36.60
76789;DHT22;65740;52.464;13.446;2023-12-07T02:46:39;18.80;36.50
76789;DHT22;65740;52.464;13.446;2023-12-07T02:49:04;18.80;36.50
76789;DHT22;65740;52.464;13.446;2023-12-07T02:51:30;18.80;36.50
76789;DHT22;65740;52.464;13.446;2023-12-07T02:53:56;18.70;36.50
76789;DHT22;65740;52.464;13.446;2023-12-07T02:56:21;18.70;36.50
76789;DHT22;65740;52.464;13.446;2023-12-07T02:58:47;18.60;36.40
76789;DHT22;65740;52.464;13.446;2023-12-07T03:01:12;18.60;36.40
76789;DHT22;65740;52.464;13.446;2023-12-07T03:03:38;18.60;37.10
76789;DHT22;65740;52.464;13.446;2023-12-07T03:06:05;18.50;36.30
76789;DHT22;65740;52.464;13.446;2023-12-07T03:08:31;18.50;36.30
76789;DHT22;65740;52.464;13.446;2023-12-07T03:10:56;18.40;36.20
76789;DHT22;65740;52.464;13.446;2023-12-07T03:13:22;18.40;36.20
76789;DHT22;65740;52.464;13.446;2023-12-07T03:15:48;18.40;36.40
76789;DHT22;65740;52.464;13.446;2023-12-07T03:18:13;18.30;36.40
76789;DHT22;65740;52.464;13.446;2023-12-07T03:20:39;18.30;36.50
76789;DHT22;65740;52.464;13.446;2023-12-07T03:23:05;18.30;36.50
76789;DHT22;65740;52.464;13.446;2023-12-07T03:25:31;18.30;36.50
76789;DHT22;65740;52.464;13.446;2023-12-07T03:27:56;18.30;36.60
76789;DHT22;65740;52.464;13.446;2023-12-07T03:30:22;18.20;36.70
76789;DHT22;65740;52.464;13.446;2023-12-07T03:32:47;18.30;37.40
76789;DHT22;65740;52.464;13.446;2023-12-07T03:35:13;18.20;36.70
76789;DHT22;65740;52.464;13.446;2023-12-07T03:37:38;18.20;36.70
76789;DHT22;65740;52.464;13.446;2023-12-07T03:40:04;18.20;36.80
76789;DHT22;65740;52.464;13.446;2023-12-07T03:42:31;18.20;36.70
76789;DHT22;65740;52.464;13.446;2023-12-07T03:44:56;18.30;36.60
76789;DHT22;65740;52.464;13.446;2023-12-07T03:47:22;18.30;36.50
76789;DHT22;65740;52.464;13.446;2023-12-07T03:49:47;18.30;36.20
76789;DHT22;65740;52.464;13.446;2023-12-07T03:52:13;18.40;36.20
76789;DHT22;65740;52.464;13.446;2023-12-07T03:54:38;18.50;36.30
76789;DHT22;65740;52.464;13.446;2023-12-07T03:57:04;18.50;36.30
76789;DHT22;65740;52.464;13.446;2023-12-07T03:59:30;18.60;36.40
76789;DHT22;65740;52.464;13.446;2023-12-07T04:01:55;18.60;36.40
76789;DHT22;65740;52.464;13.446;2023-12-07T04:04:21;18.70;36.50
76789;DHT22;65740;52.464;13.446;2023-12-07T04:06:47;18.70;36.50
76789;DHT22;65740;52.464;13.446;2023-12-07T04:09:13;18.70;36.50
76789;DHT22;65740;52.464;13.446;2023-12-07T04:11:39;18.70;36.50
76789;DHT22;65740;52.464;13.446;2023-12-07T04:14:04;18.80;36.50
76789;DHT22;65740;52.464;13.446;2023-12-07T04:16:30;18.80;36.50
76789;DHT22;65740;52.464;13.446;2023-12-07T04:18:56;18.80;36.50
76789;DHT22;65740;52.464;13.446;2023-12-07T04:21:21;18.80;36.60
76789;DHT22;65740;52.464;13.446;2023-12-07T04:23:47;18.80;36.50
76789;DHT22;65740;52.464;13.446;2023-12-07T04:26:13;18.80;36.50
76789;DHT22;65740;52.464;13.446;2023-12-07T04:28:40;18.80;36.50
76789;DHT22;65740;52.464;13.446;2023-12-07T04:31:05;18.80;36.50
76789;DHT22;65740;52.464;13.446;2023-12-07T04:33:31;18.80;36.50
76789;DHT22;65740;52.464;13.446;2023-12-07T04:35:56;18.80;36.50
76789;DHT22;65740;52.464;13.446;2023-12-07T04:38:22;18.80;36.50
76789;DHT22;65740;52.464;13.446;2023-12-07T04:40:48;18.80;36.50
76789;DHT22;65740;52.464;13.446;2023-12-07T04:43:13;18.70;36.50
76789;DHT22;65740;52.464;13.446;2023-12-07T04:45:39;18.70;36.50
76789;DHT22;65740;52.464;13.446;2023-12-07T04:48:05;18.70;36.50
76789;DHT22;65740;52.464;13.446;2023-12-07T04:50:30;18.60;36.40
76789;DHT22;65740;52.464;13.446;2023-12-07T04:52:56;18.60;36.40
76789;DHT22;65740;52.464;13.446;2023-12-07T04:55:22;18.50;36.30
76789;DHT22;65740;52.464;13.446;2023-12-07T04:57:48;18.50;36.30
76789;DHT22;65740;52.464;13.446;2023-12-07T05:00:14;18.40;36.20
76789;DHT22;65740;52.464;13.446;2023-12-07T05:02:39;18.40;36.20
76789;DHT22;65740;52.464;13.446;2023-12-07T05:05:05;18.40;36.20
76789;DHT22;65740;52.464;13.446;2023-12-07T05:07:31;18.30;36.10
76789;DHT22;65740;52.464;13.446;2023-12-07T05:09:56;18.30;36.20
76789;DHT22;65740;52.464;13.446;2023-12-07T05:12:22;18.30;36.40
76789;DHT22;65740;52.464;13.446;2023-12-07T05:14:47;18.20;36.40
76789;DHT22;65740;52.464;13.446;2023-12-07T05:17:13;18.20;36.50
76789;DHT22;65740;52.464;13.446;2023-12-07T05:19:39;18.20;36.50
76789;DHT22;65740;52.464;13.446;2023-12-07T05:22:05;18.20;36.60
76789;DHT22;65740;52.464;13.446;2023-12-07T05:24:31;18.20;36.60
76789;DHT22;65740;52.464;13.446;2023-12-07T05:26:59;18.20;36.60
76789;DHT22;65740;52.464;13.446;2023-12-07T05:29:25;18.20;36.70
76789;DHT22;65740;52.464;13.446;2023-12-07T05:31:51;18.20;36.50
76789;DHT22;65740;52.464;13.446;2023-12-07T05:34:17;18.20;36.40
76789;DHT22;65740;52.464;13.446;2023-12-07T05:36:43;18.30;36.20
76789;DHT22;65740;52.464;13.446;2023-12-07T05:39:08;18.40;36.20
76789;DHT22;65740;52.464;13.446;2023-12-07T05:41:34;18.40;36.20
76789;DHT22;65740;52.464;13.446;2023-12-07T05:44:00;18.40;36.20
76789;DHT22;65740;52.464;13.446;2023-12-07T05:46:26;18.50;36.30
76789;DHT22;65740;52.464;13.446;2023-12-07T05:48:52;18.50;36.30
76789;DHT22;65740;52.464;13.446;2023-12-07T05:51:18;18.60;36.40
76789;DHT22;65740;52.464;13.446;2023-12-07T05:53:44;18.60;36.40
76789;DHT22;65740;52.464;13.446;2023-12-07T05:56:10;18.80;36.50
76789;DHT22;65740;52.464;13.446;2023-12-07T05:58:35;18.70;36.50
76789;DHT22;65740;52.464;13.446;2023-12-07T06:01:01;18.70;36.50
76789;DHT22;65740;52.464;13.446;2023-12-07T06:03:28;18.70;36.50
76789;DHT22;65740;52.464;13.446;2023-12-07T06:05:53;18.70;36.50
76789;DHT22;65740;52.464;13.446;2023-12-07T06:08:19;18.80;36.50
76789;DHT22;65740;52.464;13.446;2023-12-07T06:10:45;18.70;36.50
76789;DHT22;65740;52.464;13.446;2023-12-07T06:13:11;18.70;36.50
76789;DHT22;65740;52.464;13.446;2023-12-07T06:15:37;18.70;37.10
76789;DHT22;65740;52.464;13.446;2023-12-07T06:18:03;18.80;36.50
76789;DHT22;65740;52.464;13.446;2023-12-07T06:20:28;18.70;36.50
76789;DHT22;65740;52.464;13.446;2023-12-07T06:22:54;18.80;36.50
76789;DHT22;65740;52.464;13.446;2023-12-07T06:25:20;18.80;36.50
76789;DHT22;65740;52.464;13.446;2023-12-07T06:27:45;18.80;36.50
76789;DHT22;65740;52.464;13.446;2023-12-07T06:30:11;18.80;36.60
76789;DHT22;65740;52.464;13.446;2023-12-07T06:32:37;18.80;36.50
76789;DHT22;65740;52.464;13.446;2023-12-07T06:35:03;18.90;36.60
76789;DHT22;65740;52.464;13.446;2023-12-07T06:37:30;18.80;36.50
76789;DHT22;65740;52.464;13.446;2023-12-07T06:39:55;18.80;36.50
76789;DHT22;65740;52.464;13.446;2023-12-07T06:42:21;18.80;36.50
76789;DHT22;65740;52.464;13.446;2023-12-07T06:44:47;18.80;36.50
76789;DHT22;65740;52.464;13.446;2023-12-07T06:47:14;18.80;36.50
76789;DHT22;65740;52.464;13.446;2023-12-07T06:49:40;18.80;36.50
76789;DHT22;65740;52.464;13.446;2023-12-07T06:52:06;18.80;36.80
76789;DHT22;65740;52.464;13.446;2023-12-07T06:54:32;18.80;36.50
76789;DHT22;65740;52.464;13.446;2023-12-07T06:56:58;18.80;36.50
76789;DHT22;65740;52.464;13.446;2023-12-07T06:59:23;18.80;36.60
76789;DHT22;65740;52.464;13.446;2023-12-07T07:01:49;18.80;36.50
76789;DHT22;65740;52.464;13.446;2023-12-07T07:04:15;18.80;36.50
76789;DHT22;65740;52.464;13.446;2023-12-07T07:06:41;18.80;36.50
76789;DHT22;65740;52.464;13.446;2023-12-07T07:09:07;18.80;36.50
76789;DHT22;65740;52.464;13.446;2023-12-07T07:11:33;18.80;36.50
76789;DHT22;65740;52.464;13.446;2023-12-07T07:13:59;18.80;36.50
76789;DHT22;65740;52.464;13.446;2023-12-07T07:16:25;18.80;36.50
76789;DHT22;65740;52.464;13.446;2023-12-07T07:18:51;18.80;36.50
76789;DHT22;65740;52.464;13.446;2023-12-07T07:21:16;18.80;36.50
76789;DHT22;65740;52.464;13.446;2023-12-07T07:23:42;18.80;36.50
76789;DHT22;65740;52.464;13.446;2023-12-07T07:26:08;18.80;36.50
76789;DHT22;65740;52.464;13.446;2023-12-07T07:28:34;18.80;36.50
76789;DHT22;65740;52.464;13.446;2023-12-07T07:31:00;18.80;36.50
76789;DHT22;65740;52.464;13.446;2023-12-07T07:33:26;18.80;36.50
76789;DHT22;65740;52.464;13.446;2023-12-07T07:35:51;18.80;36.50
76789;DHT22;65740;52.464;13.446;2023-12-07T07:38:17;18.70;36.50
76789;DHT22;65740;52.464;13.446;2023-12-07T07:40:43;18.70;36.50
76789;DHT22;65740;52.464;13.446;2023-12-07T07:43:10;18.70;36.50
76789;DHT22;65740;52.464;13.446;2023-12-07T07:45:36;18.60;36.40
76789;DHT22;65740;52.464;13.446;2023-12-07T07:48:02;18.60;36.40
76789;DHT22;65740;52.464;13.446;2023-12-07T07:50:27;18.50;36.30
76789;DHT22;65740;52.464;13.446;2023-12-07T07:52:55;18.50;36.30
76789;DHT22;65740;52.464;13.446;2023-12-07T07:55:20;18.60;36.40
76789;DHT22;65740;52.464;13.446;2023-12-07T07:57:46;18.50;36.30
76789;DHT22;65740;52.464;13.446;2023-12-07T08:00:12;18.60;36.40
76789;DHT22;65740;52.464;13.446;2023-12-07T08:02:38;18.60;36.60
76789;DHT22;65740;52.464;13.446;2023-12-07T08:05:04;18.60;36.50
76789;DHT22;65740;52.464;13.446;2023-12-07T08:07:30;18.70;36.50
76789;DHT22;65740;52.464;13.446;2023-12-07T08:09:56;18.70;36.50
76789;DHT22;65740;52.464;13.446;2023-12-07T08:12:21;18.70;36.50
76789;DHT22;65740;52.464;13.446;2023-12-07T08:14:50;18.80;36.50
76789;DHT22;65740;52.464;13.446;2023-12-07T08:17:16;18.70;36.50
76789;DHT22;65740;52.464;13.446;2023-12-07T08:19:44;18.70;36.50
76789;DHT22;65740;52.464;13.446;2023-12-07T08:22:10;18.70;36.50
76789;DHT22;65740;52.464;13.446;2023-12-07T08:24:38;18.70;36.80
76789;DHT22;65740;52.464;13.446;2023-12-07T08:27:04;18.80;36.70
76789;DHT22;65740;52.464;13.446;2023-12-07T08:29:30;18.80;36.50
76789;DHT22;65740;52.464;13.446;2023-12-07T08:31:56;18.80;36.50
76789;DHT22;65740;52.464;13.446;2023-12-07T08:34:21;18.80;36.50
76789;DHT22;65740;52.464;13.446;2023-12-07T08:36:47;18.80;36.50
76789;DHT22;65740;52.464;13.446;2023-12-07T08:39:13;18.90;36.70
76789;DHT22;65740;52.464;13.446;2023-12-07T08:41:38;18.90;36.60
76789;DHT22;65740;52.464;13.446;2023-12-07T08:44:04;18.90;36.60
76789;DHT22;65740;52.464;13.446;2023-12-07T08:46:30;18.90;36.70
76789;DHT22;65740;52.464;13.446;2023-12-07T08:48:56;18.90;37.30
76789;DHT22;65740;52.464;13.446;2023-12-07T08:51:22;18.90;36.60
76789;DHT22;65740;52.464;13.446;2023-12-07T08:53:48;18.90;36.60
76789;DHT22;65740;52.464;13.446;2023-12-07T08:56:15;18.90;36.60
76789;DHT22;65740;52.464;13.446;2023-12-07T08:58:40;19.00;36.70
76789;DHT22;65740;52.464;13.446;2023-12-07T09:01:06;19.00;36.70
76789;DHT22;65740;52.464;13.446;2023-12-07T09:03:32;18.90;36.60
76789;DHT22;65740;52.464;13.446;2023-12-07T09:05:59;18.90;36.60
76789;DHT22;65740;52.464;13.446;2023-12-07T09:08:25;18.80;36.50
76789;DHT22;65740;52.464;13.446;2023-12-07T09:10:51;18.80;36.50
76789;DHT22;65740;52.464;13.446;2023-12-07T09:13:18;18.80;37.60
76789;DHT22;65740;52.464;13.446;2023-12-07T09:15:44;18.80;37.30
76789;DHT22;65740;52.464;13.446;2023-12-07T09:18:09;18.70;37.30
76789;DHT22;65740;52.464;13.446;2023-12-07T09:20:37;18.70;38.10
76789;DHT22;65740;52.464;13.446;2023-12-07T09:23:03;18.90;37.80
76789;DHT22;65740;52.464;13.446;2023-12-07T09:25:30;18.70;37.70
76789;DHT22;65740;52.464;13.446;2023-12-07T09:27:56;18.60;37.90
76789;DHT22;65740;52.464;13.446;2023-12-07T09:30:22;18.60;37.80
76789;DHT22;65740;52.464;13.446;2023-12-07T09:32:47;18.60;38.00
76789;DHT22;65740;52.464;13.446;2023-12-07T09:35:13;18.60;38.00
76789;DHT22;65740;52.464;13.446;2023-12-07T09:37:40;18.60;38.00
76789;DHT22;65740;52.464;13.446;2023-12-07T09:40:06;18.60;38.10
76789;DHT22;65740;52.464;13.446;2023-12-07T09:42:33;18.60;38.10
76789;DHT22;65740;52.464;13.446;2023-12-07T09:44:59;18.50;38.10
76789;DHT22;65740;52.464;13.446;2023-12-07T09:47:28;18.60;38.20
76789;DHT22;65740;52.464;13.446;2023-12-07T09:49:57;18.60;38.10
76789;DHT22;65740;52.464;13.446;2023-12-07T09:52:24;18.60;38.10
76789;DHT22;65740;52.464;13.446;2023-12-07T09:54:50;18.60;38.00
76789;DHT22;65740;52.464;13.446;2023-12-07T09:57:17;18.70;38.00
76789;DHT22;65740;52.464;13.446;2023-12-07T09:59:42;18.70;37.90
76789;DHT22;65740;52.464;13.446;2023-12-07T10:02:08;18.80;37.90
76789;DHT22;65740;52.464;13.446;2023-12-07T10:04:34;18.80;37.80
76789;DHT22;65740;52.464;13.446;2023-12-07T10:06:59;18.90;37.80
76789;DHT22;65740;52.464;13.446;2023-12-07T10:09:26;18.90;37.70
76789;DHT22;65740;52.464;13.446;2023-12-07T10:12:05;18.90;37.60
76789;DHT22;65740;52.464;13.446;2023-12-07T10:14:31;19.00;37.60
76789;DHT22;65740;52.464;13.446;2023-12-07T10:17:03;19.00;37.60
76789;DHT22;65740;52.464;13.446;2023-12-07T10:19:29;19.00;37.70
76789;DHT22;65740;52.464;13.446;2023-12-07T10:21:55;19.00;37.80
76789;DHT22;65740;52.464;13.446;2023-12-07T10:24:23;19.00;37.70
76789;DHT22;65740;52.464;13.446;2023-12-07T10:26:51;19.10;37.80
76789;DHT22;65740;52.464;13.446;2023-12-07T10:29:20;19.10;37.80
76789;DHT22;65740;52.464;13.446;2023-12-07T10:31:48;19.10;37.80
76789;DHT22;65740;52.464;13.446;2023-12-07T10:34:19;19.10;37.80
76789;DHT22;65740;52.464;13.446;2023-12-07T10:36:46;19.10;37.80
76789;DHT22;65740;52.464;13.446;2023-12-07T10:39:14;19.10;37.80
76789;DHT22;65740;52.464;13.446;2023-12-07T10:41:43;19.10;37.70
76789;DHT22;65740;52.464;13.446;2023-12-07T10:44:11;19.20;37.80
76789;DHT22;65740;52.464;13.446;2023-12-07T10:46:39;19.20;37.80
76789;DHT22;65740;52.464;13.446;2023-12-07T10:49:08;19.20;37.80
76789;DHT22;65740;52.464;13.446;2023-12-07T10:54:11;19.20;37.80
76789;DHT22;65740;52.464;13.446;2023-12-07T10:56:43;19.20;37.90
76789;DHT22;65740;52.464;13.446;2023-12-07T10:59:10;19.20;37.90
76789;DHT22;65740;52.464;13.446;2023-12-07T11:01:40;19.20;37.90
76789;DHT22;65740;52.464;13.446;2023-12-07T11:04:11;19.20;37.90
76789;DHT22;65740;52.464;13.446;2023-12-07T11:06:38;19.20;38.00
76789;DHT22;65740;52.464;13.446;2023-12-07T11:09:12;19.20;38.20
76789;DHT22;65740;52.464;13.446;2023-12-07T11:14:11;19.30;38.10
76789;DHT22;65740;52.464;13.446;2023-12-07T11:16:41;19.30;38.00
76789;DHT22;65740;52.464;13.446;2023-12-07T11:22:06;19.30;37.80
76789;DHT22;65740;52.464;13.446;2023-12-07T11:24:32;19.30;38.00
76789;DHT22;65740;52.464;13.446;2023-12-07T11:26:58;19.30;38.10
76789;DHT22;65740;52.464;13.446;2023-12-07T11:29:25;19.30;38.80
76789;DHT22;65740;52.464;13.446;2023-12-07T11:31:52;19.40;38.20
76789;DHT22;65740;52.464;13.446;2023-12-07T11:34:40;19.30;38.10
76789;DHT22;65740;52.464;13.446;2023-12-07T11:37:07;19.30;38.10
76789;DHT22;65740;52.464;13.446;2023-12-07T11:39:40;19.50;38.40
76789;DHT22;65740;52.464;13.446;2023-12-07T11:44:38;19.20;38.40
76789;DHT22;65740;52.464;13.446;2023-12-07T11:47:04;19.20;38.50
76789;DHT22;65740;52.464;13.446;2023-12-07T11:49:31;19.20;38.50
76789;DHT22;65740;52.464;13.446;2023-12-07T11:51:58;19.20;38.50
76789;DHT22;65740;52.464;13.446;2023-12-07T11:54:26;19.20;38.60
76789;DHT22;65740;52.464;13.446;2023-12-07T11:56:53;19.10;38.60
76789;DHT22;65740;52.464;13.446;2023-12-07T11:59:19;19.10;38.70
76789;DHT22;65740;52.464;13.446;2023-12-07T12:01:48;19.00;38.60
76789;DHT22;65740;52.464;13.446;2023-12-07T12:04:18;19.00;38.60
76789;DHT22;65740;52.464;13.446;2023-12-07T12:06:44;19.00;38.60
76789;DHT22;65740;52.464;13.446;2023-12-07T12:09:14;19.00;39.30
76789;DHT22;65740;52.464;13.446;2023-12-07T12:11:46;19.10;38.60
76789;DHT22;65740;52.464;13.446;2023-12-07T12:14:14;19.10;38.50
76789;DHT22;65740;52.464;13.446;2023-12-07T12:16:40;19.10;38.40
76789;DHT22;65740;52.464;13.446;2023-12-07T12:19:06;19.10;38.30
76789;DHT22;65740;52.464;13.446;2023-12-07T12:21:38;19.10;38.30
76789;DHT22;65740;52.464;13.446;2023-12-07T12:24:07;19.20;38.40
76789;DHT22;65740;52.464;13.446;2023-12-07T12:26:41;19.20;38.30
76789;DHT22;65740;52.464;13.446;2023-12-07T12:29:08;19.30;38.30
76789;DHT22;65740;52.464;13.446;2023-12-07T12:31:35;19.30;38.30
76789;DHT22;65740;52.464;13.446;2023-12-07T12:34:01;19.30;38.30
76789;DHT22;65740;52.464;13.446;2023-12-07T12:36:27;19.30;38.50
76789;DHT22;65740;52.464;13.446;2023-12-07T12:38:53;19.30;38.70
76789;DHT22;65740;52.464;13.446;2023-12-07T12:41:20;19.40;38.80
76789;DHT22;65740;52.464;13.446;2023-12-07T12:43:46;19.40;39.10
76789;DHT22;65740;52.464;13.446;2023-12-07T12:46:14;19.40;39.40
76789;DHT22;65740;52.464;13.446;2023-12-07T12:49:12;19.40;39.60
76789;DHT22;65740;52.464;13.446;2023-12-07T12:51:38;19.40;39.90
76789;DHT22;65740;52.464;13.446;2023-12-07T12:54:03;19.50;40.10
76789;DHT22;65740;52.464;13.446;2023-12-07T12:56:29;19.50;40.10
76789;DHT22;65740;52.464;13.446;2023-12-07T12:58:55;19.50;40.10
76789;DHT22;65740;52.464;13.446;2023-12-07T13:01:23;19.50;40.20
76789;DHT22;65740;52.464;13.446;2023-12-07T13:03:49;19.50;40.10
76789;DHT22;65740;52.464;13.446;2023-12-07T13:06:16;19.50;40.10
76789;DHT22;65740;52.464;13.446;2023-12-07T13:08:44;19.50;40.30
76789;DHT22;65740;52.464;13.446;2023-12-07T13:11:14;19.50;40.30
76789;DHT22;65740;52.464;13.446;2023-12-07T13:13:40;19.60;40.30
76789;DHT22;65740;52.464;13.446;2023-12-07T13:16:06;19.60;40.30
76789;DHT22;65740;52.464;13.446;2023-12-07T13:18:32;19.60;40.30
76789;DHT22;65740;52.464;13.446;2023-12-07T13:20:57;19.60;40.40
76789;DHT22;65740;52.464;13.446;2023-12-07T13:23:25;19.60;40.30
76789;DHT22;65740;52.464;13.446;2023-12-07T13:25:51;19.60;40.30
76789;DHT22;65740;52.464;13.446;2023-12-07T13:28:17;19.70;40.30
76789;DHT22;65740;52.464;13.446;2023-12-07T13:30:42;19.70;40.30
76789;DHT22;65740;52.464;13.446;2023-12-07T13:33:08;19.70;40.30
76789;DHT22;65740;52.464;13.446;2023-12-07T13:35:35;19.70;40.20
76789;DHT22;65740;52.464;13.446;2023-12-07T13:38:00;19.70;40.30
76789;DHT22;65740;52.464;13.446;2023-12-07T13:40:26;19.70;40.20
76789;DHT22;65740;52.464;13.446;2023-12-07T13:42:52;19.70;40.20
76789;DHT22;65740;52.464;13.446;2023-12-07T13:45:18;19.70;40.10
76789;DHT22;65740;52.464;13.446;2023-12-07T13:47:44;19.70;40.10
76789;DHT22;65740;52.464;13.446;2023-12-07T13:50:09;19.70;40.10
76789;DHT22;65740;52.464;13.446;2023-12-07T13:52:36;19.70;40.00
76789;DHT22;65740;52.464;13.446;2023-12-07T13:55:01;19.70;40.10
76789;DHT22;65740;52.464;13.446;2023-12-07T13:57:27;19.70;40.00
76789;DHT22;65740;52.464;13.446;2023-12-07T13:59:54;19.70;40.00
76789;DHT22;65740;52.464;13.446;2023-12-07T14:02:20;19.80;40.00
76789;DHT22;65740;52.464;13.446;2023-12-07T14:04:47;19.80;40.00
76789;DHT22;65740;52.464;13.446;2023-12-07T14:07:17;19.80;40.00
76789;DHT22;65740;52.464;13.446;2023-12-07T14:09:44;19.80;40.00
76789;DHT22;65740;52.464;13.446;2023-12-07T14:12:12;19.80;40.10
76789;DHT22;65740;52.464;13.446;2023-12-07T14:14:39;19.80;40.00
76789;DHT22;65740;52.464;13.446;2023-12-07T14:17:05;19.70;39.90
76789;DHT22;65740;52.464;13.446;2023-12-07T14:19:31;19.70;39.90
76789;DHT22;65740;52.464;13.446;2023-12-07T14:21:56;19.60;39.70
76789;DHT22;65740;52.464;13.446;2023-12-07T14:24:23;19.60;39.90
76789;DHT22;65740;52.464;13.446;2023-12-07T14:26:49;19.60;39.90
76789;DHT22;65740;52.464;13.446;2023-12-07T14:29:15;19.50;39.90
76789;DHT22;65740;52.464;13.446;2023-12-07T14:31:44;19.50;40.00
76789;DHT22;65740;52.464;13.446;2023-12-07T14:34:10;19.40;40.00
76789;DHT22;65740;52.464;13.446;2023-12-07T14:36:36;19.40;40.00
76789;DHT22;65740;52.464;13.446;2023-12-07T14:39:04;19.40;40.20
76789;DHT22;65740;52.464;13.446;2023-12-07T14:41:32;19.40;40.20
76789;DHT22;65740;52.464;13.446;2023-12-07T14:43:58;19.40;40.10
76789;DHT22;65740;52.464;13.446;2023-12-07T14:46:23;19.70;40.40
76789;DHT22;65740;52.464;13.446;2023-12-07T14:48:49;19.40;40.00
76789;DHT22;65740;52.464;13.446;2023-12-07T14:51:18;19.50;40.00
76789;DHT22;65740;52.464;13.446;2023-12-07T14:53:46;19.50;40.00
76789;DHT22;65740;52.464;13.446;2023-12-07T14:56:12;19.50;39.90
76789;DHT22;65740;52.464;13.446;2023-12-07T14:58:37;19.50;39.80
76789;DHT22;65740;52.464;13.446;2023-12-07T15:01:05;19.60;39.70
76789;DHT22;65740;52.464;13.446;2023-12-07T15:03:31;19.60;39.60
76789;DHT22;65740;52.464;13.446;2023-12-07T15:05:57;19.60;39.60
76789;DHT22;65740;52.464;13.446;2023-12-07T15:08:22;19.70;39.70
76789;DHT22;65740;52.464;13.446;2023-12-07T15:10:49;19.70;39.70
76789;DHT22;65740;52.464;13.446;2023-12-07T15:13:20;19.70;39.60
76789;DHT22;65740;52.464;13.446;2023-12-07T15:15:45;19.70;39.50
76789;DHT22;65740;52.464;13.446;2023-12-07T15:18:11;19.70;39.40
76789;DHT22;65740;52.464;13.446;2023-12-07T15:20:37;19.70;39.30
76789;DHT22;65740;52.464;13.446;2023-12-07T15:23:03;19.70;39.50